createdAt,value
2022-12-07T00:01:47.069Z,4.33
2022-12-07T00:04:16.075Z,4.17
2022-12-07T00:06:44.992Z,3.69
2022-12-07T00:09:16.319Z,4.32
2022-12-07T00:11:43.595Z,4.35
2022-12-07T00:14:16.165Z,3.78
2022-12-07T00:16:44.650Z,4.18
2022-12-07T00:19:13.284Z,4.21
2022-12-07T00:21:39.841Z,3.67
2022-12-07T00:24:07.333Z,3.70
2022-12-07T00:26:39.596Z,3.66
2022-12-07T00:29:10.409Z,4.01
2022-12-07T00:31:40.214Z,3.81
2022-12-07T00:34:15.524Z,3.76
2022-12-07T00:36:42.194Z,3.93
2022-12-07T00:39:09.623Z,3.85
2022-12-07T00:41:36.293Z,3.68
2022-12-07T00:44:03.068Z,3.55
2022-12-07T00:46:30.311Z,4.11
2022-12-07T00:48:56.928Z,3.84
2022-12-07T00:51:25.644Z,4.05
2022-12-07T00:53:55.872Z,4.04
2022-12-07T00:56:24.768Z,4.00
2022-12-07T00:58:59.585Z,3.72
2022-12-07T01:01:29.505Z,4.02
2022-12-07T01:03:56.464Z,4.03
2022-12-07T01:06:26.756Z,4.12
2022-12-07T01:08:54.418Z,4.25
2022-12-07T01:11:24.599Z,4.31
2022-12-07T01:13:53.292Z,4.33
2022-12-07T01:16:21.367Z,4.36
2022-12-07T01:18:51.200Z,4.32
2022-12-07T01:21:24.056Z,4.23
2022-12-07T01:23:51.395Z,4.22
2022-12-07T01:26:21.751Z,4.25
2022-12-07T01:28:48.431Z,4.21
2022-12-07T01:31:17.982Z,4.09
2022-12-07T01:33:47.811Z,4.09
2022-12-07T01:36:18.529Z,4.02
2022-12-07T01:38:46.551Z,3.91
2022-12-07T01:41:13.616Z,4.00
2022-12-07T01:44:16.810Z,4.02
2022-12-07T01:46:57.874Z,3.89
2022-12-07T01:49:30.792Z,3.98
2022-12-07T01:52:29.322Z,3.97
2022-12-07T01:55:00.456Z,3.96
2022-12-07T01:57:27.428Z,3.59
2022-12-07T01:59:56.684Z,3.44
2022-12-07T02:05:21.371Z,3.80
2022-12-07T02:07:49.156Z,3.83
2022-12-07T02:10:18.167Z,3.71
2022-12-07T02:12:48.600Z,3.66
2022-12-07T02:15:15.427Z,3.38
2022-12-07T02:18:10.567Z,3.64
2022-12-07T02:21:12.483Z,3.66
2022-12-07T02:23:56.805Z,3.52
2022-12-07T02:26:29.317Z,3.69
2022-12-07T02:29:02.035Z,3.69
2022-12-07T02:31:31.835Z,3.70
2022-12-07T02:34:12.050Z,3.79
2022-12-07T02:36:47.954Z,3.52
2022-12-07T02:39:20.357Z,3.76
2022-12-07T02:41:56.952Z,3.38
2022-12-07T02:44:28.283Z,3.75
2022-12-07T02:47:08.327Z,3.18
2022-12-07T02:49:36.396Z,3.58
2022-12-07T02:52:02.931Z,3.86
2022-12-07T02:54:29.464Z,3.77
2022-12-07T02:57:15.496Z,3.62
2022-12-07T02:59:56.544Z,3.04
2022-12-07T03:02:44.571Z,3.52
2022-12-07T03:05:23.183Z,3.61
2022-12-07T03:08:00.547Z,3.65
2022-12-07T03:10:44.254Z,3.53
2022-12-07T03:13:38.210Z,3.48
2022-12-07T03:16:17.046Z,3.49
2022-12-07T03:19:04.254Z,3.46
2022-12-07T03:21:35.337Z,3.05
2022-12-07T03:24:08.649Z,3.28
2022-12-07T03:26:41.876Z,3.16
2022-12-07T03:29:22.928Z,3.05
2022-12-07T03:32:03.331Z,3.00
2022-12-07T03:34:43.640Z,3.17
2022-12-07T03:37:19.322Z,3.16
2022-12-07T03:40:02.665Z,3.20
2022-12-07T03:42:32.047Z,3.25
2022-12-07T03:44:58.844Z,3.11
2022-12-07T03:47:34.285Z,2.77
2022-12-07T03:50:06.869Z,3.08
2022-12-07T03:52:53.763Z,3.02
2022-12-07T03:55:32.826Z,2.98
2022-12-07T03:58:07.473Z,2.72
2022-12-07T04:00:34.480Z,2.70
2022-12-07T04:03:01.088Z,3.00
2022-12-07T04:05:27.994Z,2.49
2022-12-07T04:07:54.657Z,3.01
2022-12-07T04:10:21.225Z,3.02
2022-12-07T04:12:47.756Z,2.90
2022-12-07T04:15:16.025Z,2.89
2022-12-07T04:17:42.532Z,2.69
2022-12-07T04:20:09.993Z,2.51
2022-12-07T04:22:36.575Z,2.42
2022-12-07T04:25:03.254Z,2.61
2022-12-07T04:27:29.751Z,2.69
2022-12-07T04:29:56.736Z,2.61
2022-12-07T04:32:24.266Z,2.76
2022-12-07T04:34:55.341Z,2.77
2022-12-07T04:37:23.070Z,2.81
2022-12-07T04:39:49.576Z,2.73
2022-12-07T04:42:16.602Z,2.26
2022-12-07T04:44:43.244Z,2.74
2022-12-07T04:47:09.899Z,2.54
2022-12-07T04:49:36.524Z,2.61
2022-12-07T04:52:03.250Z,2.42
2022-12-07T04:54:29.830Z,2.54
2022-12-07T04:56:56.374Z,2.63
2022-12-07T04:59:22.921Z,2.47
2022-12-07T05:01:49.520Z,2.41
2022-12-07T05:04:17.142Z,2.30
2022-12-07T05:06:43.701Z,2.42
2022-12-07T05:09:10.620Z,2.44
2022-12-07T05:11:40.150Z,2.51
2022-12-07T05:14:17.453Z,2.51
2022-12-07T05:16:46.254Z,2.66
2022-12-07T05:19:13.479Z,2.67
2022-12-07T05:21:40.737Z,2.74
2022-12-07T05:24:08.739Z,2.86
2022-12-07T05:26:35.664Z,2.84
2022-12-07T05:29:02.276Z,2.81
2022-12-07T05:31:29.209Z,2.44
2022-12-07T05:33:56.299Z,2.65
2022-12-07T05:36:23.553Z,2.63
2022-12-07T05:38:50.247Z,2.54
2022-12-07T05:41:38.229Z,2.51
2022-12-07T05:44:06.229Z,2.23
2022-12-07T05:46:32.823Z,2.64
2022-12-07T05:48:59.504Z,2.85
2022-12-07T05:51:26.093Z,2.55
2022-12-07T05:53:52.678Z,2.70
2022-12-07T05:56:19.248Z,2.45
2022-12-07T05:59:04.439Z,2.60
2022-12-07T06:01:31.055Z,2.56
2022-12-07T06:03:57.553Z,2.11
2022-12-07T06:06:24.137Z,2.55
2022-12-07T06:08:50.736Z,2.66
2022-12-07T06:11:36.042Z,2.66
2022-12-07T06:14:02.568Z,2.57
2022-12-07T06:16:29.402Z,2.58
2022-12-07T06:18:56.105Z,2.38
2022-12-07T06:21:22.615Z,2.56
2022-12-07T06:23:49.224Z,2.65
2022-12-07T06:26:15.758Z,2.47
2022-12-07T06:28:42.268Z,2.38
2022-12-07T06:31:13.686Z,2.63
2022-12-07T06:33:40.813Z,2.33
2022-12-07T06:36:07.747Z,2.69
2022-12-07T06:38:35.999Z,2.38
2022-12-07T06:41:02.513Z,2.33
2022-12-07T06:43:29.215Z,2.42
2022-12-07T06:45:55.961Z,2.60
2022-12-07T06:48:22.583Z,2.35
2022-12-07T06:50:54.395Z,2.64
2022-12-07T06:53:21.849Z,2.73
2022-12-07T06:55:48.530Z,2.77
2022-12-07T06:58:15.095Z,2.81
2022-12-07T07:00:42.134Z,2.64
2022-12-07T07:03:08.943Z,2.62
2022-12-07T07:05:35.871Z,2.91
2022-12-07T07:08:21.900Z,2.89
2022-12-07T07:10:49.171Z,3.01
2022-12-07T07:13:15.708Z,3.09
2022-12-07T07:15:42.323Z,2.87
2022-12-07T07:18:09.130Z,2.71
2022-12-07T07:20:35.908Z,2.96
2022-12-07T07:23:02.448Z,3.10
2022-12-07T07:25:29.276Z,2.89
2022-12-07T07:27:56.035Z,3.16
2022-12-07T07:30:22.876Z,3.05
2022-12-07T07:32:50.057Z,2.92
2022-12-07T07:35:16.751Z,3.06
2022-12-07T07:37:43.424Z,3.08
2022-12-07T07:40:11.084Z,3.10
2022-12-07T07:42:37.601Z,3.13
2022-12-07T07:45:05.566Z,3.24
2022-12-07T07:47:32.290Z,3.12
2022-12-07T07:49:58.979Z,2.95
2022-12-07T07:52:25.513Z,3.22
2022-12-07T07:54:53.375Z,2.82
2022-12-07T07:57:19.878Z,3.24
2022-12-07T07:59:46.463Z,3.24
2022-12-07T08:02:20.022Z,3.45
2022-12-07T08:04:47.430Z,3.43
2022-12-07T08:07:15.274Z,3.48
2022-12-07T08:09:41.957Z,3.45
2022-12-07T08:12:09.000Z,3.46
2022-12-07T08:14:35.653Z,3.41
2022-12-07T08:17:02.488Z,3.33
2022-12-07T08:19:28.975Z,3.41
2022-12-07T08:21:57.048Z,3.42
2022-12-07T08:24:24.716Z,3.60
2022-12-07T08:26:52.501Z,3.72
2022-12-07T08:29:19.503Z,3.84
2022-12-07T08:31:46.062Z,3.87
2022-12-07T08:34:13.599Z,3.79
2022-12-07T08:36:40.564Z,3.93
2022-12-07T08:41:53.504Z,4.13
2022-12-07T08:44:20.002Z,4.21
2022-12-07T08:46:55.134Z,4.30
2022-12-07T08:49:28.813Z,4.12
2022-12-07T08:51:56.598Z,4.45
2022-12-07T08:54:23.368Z,4.24
2022-12-07T08:56:58.466Z,4.18
2022-12-07T08:59:26.568Z,4.21
2022-12-07T09:01:53.111Z,4.65
2022-12-07T09:04:19.650Z,4.58
2022-12-07T09:06:46.326Z,4.78
2022-12-07T09:09:15.288Z,4.98
2022-12-07T09:11:41.851Z,5.05
2022-12-07T09:14:08.372Z,4.77
2022-12-07T09:16:35.091Z,4.68
2022-12-07T09:19:01.638Z,4.89
2022-12-07T09:21:28.093Z,4.89
2022-12-07T09:23:54.607Z,4.85
2022-12-07T09:26:21.197Z,5.09
2022-12-07T09:28:47.769Z,5.08
2022-12-07T09:31:23.155Z,4.64
2022-12-07T09:33:58.767Z,4.74
2022-12-07T09:36:26.482Z,4.94
2022-12-07T09:38:53.387Z,5.10
2022-12-07T09:41:21.297Z,4.82
2022-12-07T09:43:48.268Z,4.99
2022-12-07T09:46:19.037Z,4.71
2022-12-07T09:48:46.443Z,4.72
2022-12-07T09:51:24.050Z,4.95
2022-12-07T09:53:53.206Z,5.46
2022-12-07T09:56:21.037Z,5.64
2022-12-07T09:58:48.474Z,5.10
2022-12-07T10:01:19.053Z,5.37
2022-12-07T10:03:53.309Z,5.56
2022-12-07T10:06:20.246Z,5.72
2022-12-07T10:08:48.494Z,5.25
2022-12-07T10:11:17.019Z,5.69
2022-12-07T10:13:48.777Z,5.62
2022-12-07T10:16:38.466Z,5.87
2022-12-07T10:19:32.304Z,6.01
2022-12-07T10:22:16.645Z,6.14
2022-12-07T10:24:47.290Z,5.96
2022-12-07T10:27:23.092Z,5.94
2022-12-07T10:29:52.256Z,5.81
2022-12-07T10:32:18.683Z,5.56
2022-12-07T10:35:02.369Z,5.89
2022-12-07T10:37:29.144Z,5.81
2022-12-07T10:39:58.707Z,5.67
2022-12-07T10:42:30.661Z,5.61
2022-12-07T10:45:19.144Z,5.61
2022-12-07T10:47:56.679Z,5.87
2022-12-07T10:50:50.575Z,5.76
2022-12-07T10:53:22.750Z,5.75
2022-12-07T10:56:20.486Z,5.36
2022-12-07T10:59:16.155Z,5.88
2022-12-07T11:02:22.637Z,6.29
2022-12-07T11:05:30.371Z,6.63
2022-12-07T11:08:15.425Z,6.95
2022-12-07T11:11:09.741Z,6.91
2022-12-07T11:14:05.527Z,7.02
2022-12-07T11:16:50.624Z,7.05
2022-12-07T11:19:53.418Z,6.99
2022-12-07T11:22:28.900Z,6.87
2022-12-07T11:25:11.236Z,6.12
2022-12-07T11:27:40.661Z,6.57
2022-12-07T11:30:38.681Z,6.38
2022-12-07T11:33:19.114Z,6.14
2022-12-07T11:36:18.460Z,6.16
2022-12-07T11:38:59.929Z,5.48
2022-12-07T11:41:37.055Z,6.19
2022-12-07T11:44:06.923Z,6.19
2022-12-07T11:46:59.978Z,6.28
2022-12-07T11:49:41.737Z,6.42
2022-12-07T11:52:22.365Z,6.51
2022-12-07T11:54:53.139Z,6.58
2022-12-07T11:57:37.688Z,6.66
2022-12-07T12:00:13.398Z,6.72
2022-12-07T12:02:52.650Z,6.38
2022-12-07T12:05:23.044Z,6.58
2022-12-07T12:11:18.533Z,6.54
2022-12-07T12:14:34.881Z,6.74
2022-12-07T12:17:22.414Z,6.92
2022-12-07T12:20:20.254Z,6.48
2022-12-07T12:22:53.153Z,6.13
2022-12-07T12:25:50.610Z,6.58
2022-12-07T12:28:25.192Z,6.21
2022-12-07T12:31:10.992Z,6.35
2022-12-07T12:33:39.495Z,6.51
2022-12-07T12:36:25.714Z,6.53
2022-12-07T12:39:21.866Z,6.45
2022-12-07T12:41:48.514Z,6.30
2022-12-07T12:44:20.884Z,6.67
2022-12-07T12:46:58.627Z,6.85
2022-12-07T12:49:26.051Z,6.89
2022-12-07T12:51:59.579Z,6.86
2022-12-07T12:54:32.042Z,6.67
2022-12-07T12:57:01.454Z,6.66
2022-12-07T12:59:33.124Z,6.37
2022-12-07T13:02:02.701Z,6.30
2022-12-07T13:04:40.909Z,6.50
2022-12-07T13:07:13.043Z,6.17
2022-12-07T13:09:45.208Z,6.46
2022-12-07T13:12:17.114Z,6.55
2022-12-07T13:14:44.933Z,6.56
2022-12-07T13:17:33.311Z,6.50
2022-12-07T13:20:12.824Z,6.55
2022-12-07T13:22:45.457Z,6.54
2022-12-07T13:25:21.941Z,6.54
2022-12-07T13:27:57.299Z,6.88
2022-12-07T13:30:24.654Z,6.82
2022-12-07T13:32:56.389Z,6.69
2022-12-07T13:35:34.978Z,6.74
2022-12-07T13:38:23.332Z,7.13
2022-12-07T13:41:11.679Z,7.19
2022-12-07T13:43:53.232Z,7.27
2022-12-07T13:46:31.477Z,6.89
2022-12-07T13:48:58.139Z,6.87
2022-12-07T13:51:29.203Z,6.64
2022-12-07T13:54:12.019Z,6.49
2022-12-07T13:56:40.651Z,6.42
2022-12-07T13:59:15.318Z,6.21
2022-12-07T14:01:41.946Z,6.27
2022-12-07T14:04:33.961Z,6.18
2022-12-07T14:07:02.784Z,6.05
2022-12-07T14:09:30.888Z,5.86
2022-12-07T14:11:58.407Z,5.77
2022-12-07T14:14:35.985Z,5.82
2022-12-07T14:17:16.320Z,5.79
2022-12-07T14:19:50.983Z,5.89
2022-12-07T14:22:27.344Z,5.97
2022-12-07T14:25:19.835Z,5.80
2022-12-07T14:27:59.396Z,5.50
2022-12-07T14:30:31.940Z,5.29
2022-12-07T14:33:02.010Z,5.43
2022-12-07T14:35:30.105Z,5.38
2022-12-07T14:37:57.005Z,5.08
2022-12-07T14:40:25.793Z,5.43
2022-12-07T14:42:57.146Z,4.94
2022-12-07T14:45:24.058Z,5.21
2022-12-07T14:50:39.702Z,4.85
2022-12-07T14:55:49.628Z,4.61
2022-12-07T14:58:17.853Z,4.28
2022-12-07T15:00:45.273Z,4.42
2022-12-07T15:03:12.027Z,4.21
2022-12-07T15:05:38.775Z,4.00
2022-12-07T15:08:05.785Z,4.41
2022-12-07T15:10:36.303Z,4.31
2022-12-07T15:13:22.423Z,4.18
2022-12-07T15:15:50.863Z,4.22
2022-12-07T15:18:18.174Z,4.31
2022-12-07T15:20:45.385Z,4.33
2022-12-07T15:23:13.189Z,4.14
2022-12-07T15:25:47.587Z,4.11
2022-12-07T15:28:14.652Z,3.67
2022-12-07T15:30:43.920Z,4.16
2022-12-07T15:33:11.207Z,3.74
2022-12-07T15:35:42.003Z,3.99
2022-12-07T15:38:09.296Z,4.16
2022-12-07T15:40:36.117Z,3.60
2022-12-07T15:43:03.651Z,4.04
2022-12-07T15:45:30.762Z,3.89
2022-12-07T15:50:43.859Z,3.35
2022-12-07T15:53:10.395Z,3.38
2022-12-07T15:55:39.966Z,3.26
2022-12-07T15:58:06.857Z,3.51
2022-12-07T16:00:34.050Z,3.60
2022-12-07T16:03:00.722Z,3.53
2022-12-07T16:05:27.233Z,3.65
2022-12-07T16:07:53.813Z,3.29
2022-12-07T16:10:20.367Z,3.43
2022-12-07T16:12:46.885Z,3.32
2022-12-07T16:15:13.442Z,3.46
2022-12-07T16:17:39.942Z,3.45
2022-12-07T16:20:07.397Z,3.33
2022-12-07T16:22:34.431Z,3.15
2022-12-07T16:25:01.171Z,3.52
2022-12-07T16:27:27.857Z,3.16
2022-12-07T16:29:54.404Z,3.29
2022-12-07T16:32:20.860Z,3.45
2022-12-07T16:34:47.293Z,3.56
2022-12-07T16:37:13.755Z,3.45
2022-12-07T16:39:40.214Z,2.98
2022-12-07T16:42:06.810Z,3.15
2022-12-07T16:44:33.914Z,2.82
2022-12-07T16:47:01.852Z,3.20
2022-12-07T16:49:28.729Z,2.86
2022-12-07T16:52:18.281Z,2.83
2022-12-07T16:54:41.724Z,2.92
2022-12-07T16:57:08.173Z,3.12
2022-12-07T16:59:34.756Z,3.01
2022-12-07T17:02:01.229Z,3.18
2022-12-07T17:04:27.984Z,2.91
2022-12-07T17:06:54.665Z,3.17
2022-12-07T17:09:21.794Z,2.95
2022-12-07T17:11:49.050Z,2.88
2022-12-07T17:14:34.488Z,2.90
2022-12-07T17:17:01.269Z,3.14
2022-12-07T17:19:27.826Z,3.14
2022-12-07T17:21:54.323Z,2.95
2022-12-07T17:24:20.764Z,3.14
2022-12-07T17:26:48.119Z,3.11
2022-12-07T17:29:16.814Z,3.06
2022-12-07T17:31:49.324Z,3.05
2022-12-07T17:34:17.739Z,3.04
2022-12-07T17:36:46.079Z,2.62
2022-12-07T17:39:16.926Z,3.06
2022-12-07T17:42:02.560Z,3.06
2022-12-07T17:44:29.467Z,2.98
2022-12-07T17:46:59.810Z,3.05
2022-12-07T17:49:27.287Z,2.99
2022-12-07T17:52:12.812Z,2.97
2022-12-07T17:54:39.356Z,2.86
2022-12-07T17:57:05.869Z,2.54
2022-12-07T17:59:32.386Z,2.48
2022-12-07T18:01:58.938Z,2.76
2022-12-07T18:04:25.533Z,2.70
2022-12-07T18:06:53.043Z,2.75
2022-12-07T18:09:21.039Z,2.67
2022-12-07T18:11:47.602Z,2.44
2022-12-07T18:14:14.164Z,2.71
2022-12-07T18:16:41.048Z,2.48
2022-12-07T18:19:09.158Z,2.71
2022-12-07T18:21:35.906Z,2.41
2022-12-07T18:24:04.543Z,2.28
2022-12-07T18:26:33.684Z,2.62
2022-12-07T18:29:00.921Z,2.80
2022-12-07T18:31:28.805Z,2.84
2022-12-07T18:33:56.379Z,2.80
2022-12-07T18:36:24.161Z,2.83
2022-12-07T18:38:51.902Z,2.69
2022-12-07T18:41:19.041Z,2.52
2022-12-07T18:43:45.959Z,2.30
2022-12-07T18:46:15.277Z,2.41
2022-12-07T18:48:42.205Z,2.59
2022-12-07T18:51:10.905Z,2.59
2022-12-07T18:53:37.728Z,2.56
2022-12-07T18:56:08.949Z,2.46
2022-12-07T18:58:35.511Z,2.26
2022-12-07T19:01:02.298Z,2.23
2022-12-07T19:03:33.226Z,2.10
2022-12-07T19:06:06.048Z,2.26
2022-12-07T19:08:34.264Z,1.84
2022-12-07T19:11:23.720Z,2.13
2022-12-07T19:13:50.851Z,2.17
2022-12-07T19:16:17.396Z,2.08
2022-12-07T19:18:49.346Z,2.10
2022-12-07T19:21:18.639Z,1.76
2022-12-07T19:23:45.210Z,1.58
2022-12-07T19:26:11.774Z,1.93
2022-12-07T19:28:38.323Z,1.41
2022-12-07T19:31:14.285Z,1.57
2022-12-07T19:33:41.158Z,1.95
2022-12-07T19:36:08.394Z,1.96
2022-12-07T19:38:35.024Z,1.77
2022-12-07T19:41:30.574Z,1.93
2022-12-07T19:43:58.005Z,1.95
2022-12-07T19:46:24.655Z,1.90
2022-12-07T19:48:51.327Z,2.25
2022-12-07T19:51:18.641Z,2.08
2022-12-07T19:53:45.108Z,2.11
2022-12-07T19:56:16.408Z,1.86
2022-12-07T19:58:43.272Z,2.38
2022-12-07T20:01:10.305Z,2.39
2022-12-07T20:03:37.020Z,2.39
2022-12-07T20:06:09.445Z,2.31
2022-12-07T20:08:37.096Z,2.09
2022-12-07T20:11:22.988Z,2.39
2022-12-07T20:13:49.473Z,2.17
2022-12-07T20:16:19.790Z,2.24
2022-12-07T20:18:50.519Z,1.82
2022-12-07T20:21:22.778Z,2.51
2022-12-07T20:23:49.619Z,2.04
2022-12-07T20:26:16.279Z,2.06
2022-12-07T20:28:46.660Z,2.51
2022-12-07T20:31:15.601Z,2.47
2022-12-07T20:33:46.709Z,2.47
2022-12-07T20:36:16.289Z,1.94
2022-12-07T20:38:43.947Z,2.25
2022-12-07T20:41:32.853Z,2.21
2022-12-07T20:44:01.157Z,2.57
2022-12-07T20:46:30.733Z,2.22
2022-12-07T20:49:01.439Z,2.62
2022-12-07T20:51:28.938Z,2.71
2022-12-07T20:53:56.349Z,2.65
2022-12-07T20:56:29.382Z,2.83
2022-12-07T20:58:59.381Z,2.61
2022-12-07T21:01:26.013Z,2.74
2022-12-07T21:03:57.736Z,2.92
2022-12-07T21:06:25.027Z,2.95
2022-12-07T21:08:54.518Z,2.95
2022-12-07T21:11:22.246Z,2.99
2022-12-07T21:13:49.126Z,2.86
2022-12-07T21:16:22.295Z,3.04
2022-12-07T21:18:49.414Z,3.03
2022-12-07T21:21:19.425Z,2.78
2022-12-07T21:23:48.248Z,3.00
2022-12-07T21:26:17.692Z,3.09
2022-12-07T21:28:44.367Z,3.02
2022-12-07T21:31:13.510Z,3.22
2022-12-07T21:33:40.908Z,3.28
2022-12-07T21:36:08.469Z,2.92
2022-12-07T21:38:35.094Z,3.27
2022-12-07T21:41:20.638Z,3.16
2022-12-07T21:43:48.044Z,2.56
2022-12-07T21:46:16.151Z,3.30
2022-12-07T21:48:43.319Z,2.78
2022-12-07T21:51:14.083Z,3.19
2022-12-07T21:53:42.630Z,2.73
2022-12-07T21:56:36.291Z,3.16
2022-12-07T21:59:06.023Z,1.94
2022-12-07T22:01:37.845Z,3.02
2022-12-07T22:04:22.329Z,2.86
2022-12-07T22:06:49.603Z,2.12
2022-12-07T22:09:18.910Z,3.05
2022-12-07T22:11:46.785Z,3.10
2022-12-07T22:14:32.022Z,3.23
2022-12-07T22:16:58.977Z,2.84
2022-12-07T22:19:26.657Z,3.30
2022-12-07T22:21:54.464Z,2.00
2022-12-07T22:24:20.948Z,2.93
2022-12-07T22:26:47.495Z,2.92
2022-12-07T22:29:13.969Z,2.91
2022-12-07T22:31:43.508Z,2.76
2022-12-07T22:34:17.711Z,2.75
2022-12-07T22:36:45.298Z,3.11
2022-12-07T22:39:11.907Z,3.03
2022-12-07T22:41:38.432Z,3.06
2022-12-07T22:44:08.373Z,3.03
2022-12-07T22:46:35.529Z,2.46
2022-12-07T22:49:05.790Z,2.65
2022-12-07T22:51:35.772Z,2.83
2022-12-07T22:54:04.065Z,2.34
2022-12-07T22:56:32.449Z,3.12
2022-12-07T22:58:58.966Z,2.91
2022-12-07T23:01:25.519Z,2.89
2022-12-07T23:03:52.463Z,2.75
2022-12-07T23:06:22.022Z,2.81
2022-12-07T23:08:52.293Z,2.66
2022-12-07T23:11:42.122Z,2.65
2022-12-07T23:14:17.893Z,2.60
2022-12-07T23:16:44.733Z,2.31
2022-12-07T23:19:11.370Z,2.33
2022-12-07T23:21:37.897Z,2.29
2022-12-07T23:24:04.715Z,2.37
2022-12-07T23:26:31.226Z,2.35
2022-12-07T23:28:58.475Z,2.02
2022-12-07T23:31:25.334Z,2.52
2022-12-07T23:33:51.809Z,2.36
2022-12-07T23:36:26.541Z,2.27
2022-12-07T23:38:54.964Z,2.30
2022-12-07T23:41:23.790Z,2.34
2022-12-07T23:43:50.882Z,2.43
2022-12-07T23:46:25.824Z,2.37
2022-12-07T23:48:54.723Z,2.43
2022-12-07T23:51:22.045Z,2.19
2022-12-07T23:53:50.237Z,2.31
2022-12-07T23:56:25.899Z,2.28
2022-12-07T23:58:53.658Z,2.02
